sensor_id;sensor_type;location;lat;lon;timestamp;temperature;humidity
10678;DHT22;5387;48.722;9.110;2023-09-08T00:02:19;14.70;99.90
10678;DHT22;5387;48.722;9.110;2023-09-08T00:04:45;14.60;99.90
10678;DHT22;5387;48.722;9.110;2023-09-08T00:07:12;14.50;99.90
10678;DHT22;5387;48.722;9.110;2023-09-08T00:09:39;14.60;99.90
10678;DHT22;5387;48.722;9.110;2023-09-08T00:12:06;14.60;99.90
10678;DHT22;5387;48.722;9.110;2023-09-08T00:14:34;14.50;99.90
10678;DHT22;5387;48.722;9.110;2023-09-08T00:17:01;14.50;99.90
10678;DHT22;5387;48.722;9.110;2023-09-08T00:19:28;14.40;99.90
10678;DHT22;5387;48.722;9.110;2023-09-08T00:21:56;14.50;99.90
10678;DHT22;5387;48.722;9.110;2023-09-08T00:24:24;14.50;99.90
10678;DHT22;5387;48.722;9.110;2023-09-08T00:26:50;14.50;99.90
10678;DHT22;5387;48.722;9.110;2023-09-08T00:29:17;14.60;99.90
10678;DHT22;5387;48.722;9.110;2023-09-08T00:31:45;14.50;99.90
10678;DHT22;5387;48.722;9.110;2023-09-08T00:34:12;14.40;99.90
10678;DHT22;5387;48.722;9.110;2023-09-08T00:36:39;14.50;99.90
10678;DHT22;5387;48.722;9.110;2023-09-08T00:39:05;14.30;99.90
10678;DHT22;5387;48.722;9.110;2023-09-08T00:41:32;14.30;99.90
10678;DHT22;5387;48.722;9.110;2023-09-08T00:43:59;14.30;99.90
10678;DHT22;5387;48.722;9.110;2023-09-08T00:46:26;14.30;99.90
10678;DHT22;5387;48.722;9.110;2023-09-08T00:48:55;14.20;99.90
10678;DHT22;5387;48.722;9.110;2023-09-08T00:51:22;14.30;99.90
10678;DHT22;5387;48.722;9.110;2023-09-08T00:56:25;14.20;99.90
10678;DHT22;5387;48.722;9.110;2023-09-08T00:58:52;14.30;99.90
10678;DHT22;5387;48.722;9.110;2023-09-08T01:01:18;14.20;99.90
10678;DHT22;5387;48.722;9.110;2023-09-08T01:03:45;14.20;99.90
10678;DHT22;5387;48.722;9.110;2023-09-08T01:06:14;14.20;99.90
10678;DHT22;5387;48.722;9.110;2023-09-08T01:08:41;14.20;99.90
10678;DHT22;5387;48.722;9.110;2023-09-08T01:11:09;14.20;99.90
10678;DHT22;5387;48.722;9.110;2023-09-08T01:13:36;14.20;99.90
10678;DHT22;5387;48.722;9.110;2023-09-08T01:16:03;14.20;99.90
10678;DHT22;5387;48.722;9.110;2023-09-08T01:18:30;14.20;99.90
10678;DHT22;5387;48.722;9.110;2023-09-08T01:21:11;14.10;99.90
10678;DHT22;5387;48.722;9.110;2023-09-08T01:23:56;14.10;99.90
10678;DHT22;5387;48.722;9.110;2023-09-08T01:26:26;14.00;99.90
10678;DHT22;5387;48.722;9.110;2023-09-08T01:28:54;14.00;99.90
10678;DHT22;5387;48.722;9.110;2023-09-08T01:31:22;14.00;99.90
10678;DHT22;5387;48.722;9.110;2023-09-08T01:33:49;14.00;99.90
10678;DHT22;5387;48.722;9.110;2023-09-08T01:36:16;14.00;99.90
10678;DHT22;5387;48.722;9.110;2023-09-08T01:38:43;14.00;99.90
10678;DHT22;5387;48.722;9.110;2023-09-08T01:41:09;13.90;99.90
10678;DHT22;5387;48.722;9.110;2023-09-08T01:43:37;13.90;99.90
10678;DHT22;5387;48.722;9.110;2023-09-08T01:46:04;13.90;99.90
10678;DHT22;5387;48.722;9.110;2023-09-08T01:48:31;13.80;99.90
10678;DHT22;5387;48.722;9.110;2023-09-08T01:50:58;13.80;99.90
10678;DHT22;5387;48.722;9.110;2023-09-08T01:53:24;13.80;99.90
10678;DHT22;5387;48.722;9.110;2023-09-08T01:55:52;13.80;99.90
10678;DHT22;5387;48.722;9.110;2023-09-08T01:58:18;13.90;99.90
10678;DHT22;5387;48.722;9.110;2023-09-08T02:00:49;13.70;99.90
10678;DHT22;5387;48.722;9.110;2023-09-08T02:03:16;13.80;99.90
10678;DHT22;5387;48.722;9.110;2023-09-08T02:05:44;13.80;99.90
10678;DHT22;5387;48.722;9.110;2023-09-08T02:08:11;13.80;99.90
10678;DHT22;5387;48.722;9.110;2023-09-08T02:10:40;13.80;99.90
10678;DHT22;5387;48.722;9.110;2023-09-08T02:13:07;13.80;99.90
10678;DHT22;5387;48.722;9.110;2023-09-08T02:15:35;13.70;99.90
10678;DHT22;5387;48.722;9.110;2023-09-08T02:18:03;13.80;99.90
10678;DHT22;5387;48.722;9.110;2023-09-08T02:20:30;13.70;99.90
10678;DHT22;5387;48.722;9.110;2023-09-08T02:22:57;13.70;99.90
10678;DHT22;5387;48.722;9.110;2023-09-08T02:25:24;13.70;99.90
10678;DHT22;5387;48.722;9.110;2023-09-08T02:27:51;13.60;99.90
10678;DHT22;5387;48.722;9.110;2023-09-08T02:30:18;13.70;99.90
10678;DHT22;5387;48.722;9.110;2023-09-08T02:32:45;13.70;99.90
10678;DHT22;5387;48.722;9.110;2023-09-08T02:35:13;13.70;99.90
10678;DHT22;5387;48.722;9.110;2023-09-08T02:37:40;13.70;99.90
10678;DHT22;5387;48.722;9.110;2023-09-08T02:40:07;13.60;99.90
10678;DHT22;5387;48.722;9.110;2023-09-08T02:42:35;13.60;99.90
10678;DHT22;5387;48.722;9.110;2023-09-08T02:45:01;13.50;99.90
10678;DHT22;5387;48.722;9.110;2023-09-08T02:47:28;13.60;99.90
10678;DHT22;5387;48.722;9.110;2023-09-08T02:49:55;13.50;99.90
10678;DHT22;5387;48.722;9.110;2023-09-08T02:52:24;13.60;99.90
10678;DHT22;5387;48.722;9.110;2023-09-08T02:54:50;13.60;99.90
10678;DHT22;5387;48.722;9.110;2023-09-08T02:57:17;13.40;99.90
10678;DHT22;5387;48.722;9.110;2023-09-08T02:59:49;13.50;99.90
10678;DHT22;5387;48.722;9.110;2023-09-08T03:02:16;13.40;99.90
10678;DHT22;5387;48.722;9.110;2023-09-08T03:04:43;13.30;99.90
10678;DHT22;5387;48.722;9.110;2023-09-08T03:07:09;13.30;99.90
10678;DHT22;5387;48.722;9.110;2023-09-08T03:09:38;13.50;99.90
10678;DHT22;5387;48.722;9.110;2023-09-08T03:12:04;13.50;99.90
10678;DHT22;5387;48.722;9.110;2023-09-08T03:14:31;13.50;99.90
10678;DHT22;5387;48.722;9.110;2023-09-08T03:16:58;13.50;99.90
10678;DHT22;5387;48.722;9.110;2023-09-08T03:19:25;13.50;99.90
10678;DHT22;5387;48.722;9.110;2023-09-08T03:21:52;13.50;99.90
10678;DHT22;5387;48.722;9.110;2023-09-08T03:24:18;13.60;99.90
10678;DHT22;5387;48.722;9.110;2023-09-08T03:26:46;13.70;99.90
10678;DHT22;5387;48.722;9.110;2023-09-08T03:29:13;13.70;99.90
10678;DHT22;5387;48.722;9.110;2023-09-08T03:31:40;13.70;99.90
10678;DHT22;5387;48.722;9.110;2023-09-08T03:34:07;13.80;99.90
10678;DHT22;5387;48.722;9.110;2023-09-08T03:36:34;13.80;99.90
10678;DHT22;5387;48.722;9.110;2023-09-08T03:39:02;13.80;99.90
10678;DHT22;5387;48.722;9.110;2023-09-08T03:41:29;13.70;99.90
10678;DHT22;5387;48.722;9.110;2023-09-08T03:43:57;13.70;99.90
10678;DHT22;5387;48.722;9.110;2023-09-08T03:46:24;13.70;99.90
10678;DHT22;5387;48.722;9.110;2023-09-08T03:48:51;13.60;99.90
10678;DHT22;5387;48.722;9.110;2023-09-08T03:51:17;13.60;99.90
10678;DHT22;5387;48.722;9.110;2023-09-08T03:53:44;13.50;99.90
10678;DHT22;5387;48.722;9.110;2023-09-08T03:56:11;13.40;99.90
10678;DHT22;5387;48.722;9.110;2023-09-08T03:58:38;13.30;99.90
10678;DHT22;5387;48.722;9.110;2023-09-08T04:01:06;13.40;99.90
10678;DHT22;5387;48.722;9.110;2023-09-08T04:03:33;13.50;99.90
10678;DHT22;5387;48.722;9.110;2023-09-08T04:05:59;13.40;99.90
10678;DHT22;5387;48.722;9.110;2023-09-08T04:08:26;13.30;99.90
10678;DHT22;5387;48.722;9.110;2023-09-08T04:10:53;13.30;99.90
10678;DHT22;5387;48.722;9.110;2023-09-08T04:13:20;13.20;99.90
10678;DHT22;5387;48.722;9.110;2023-09-08T04:15:46;13.20;99.90
10678;DHT22;5387;48.722;9.110;2023-09-08T04:18:14;13.20;99.90
10678;DHT22;5387;48.722;9.110;2023-09-08T04:20:41;13.20;99.90
10678;DHT22;5387;48.722;9.110;2023-09-08T04:23:08;13.20;99.90
10678;DHT22;5387;48.722;9.110;2023-09-08T04:25:35;13.10;99.90
10678;DHT22;5387;48.722;9.110;2023-09-08T04:28:02;13.10;99.90
10678;DHT22;5387;48.722;9.110;2023-09-08T04:30:29;13.10;99.90
10678;DHT22;5387;48.722;9.110;2023-09-08T04:32:55;13.10;99.90
10678;DHT22;5387;48.722;9.110;2023-09-08T04:35:23;13.10;99.90
10678;DHT22;5387;48.722;9.110;2023-09-08T04:37:50;13.10;99.90
10678;DHT22;5387;48.722;9.110;2023-09-08T04:40:19;13.10;99.90
10678;DHT22;5387;48.722;9.110;2023-09-08T04:42:45;13.20;99.90
10678;DHT22;5387;48.722;9.110;2023-09-08T04:45:12;13.40;99.90
10678;DHT22;5387;48.722;9.110;2023-09-08T04:47:39;13.30;99.90
10678;DHT22;5387;48.722;9.110;2023-09-08T04:50:07;13.30;99.90
10678;DHT22;5387;48.722;9.110;2023-09-08T04:52:35;13.30;99.90
10678;DHT22;5387;48.722;9.110;2023-09-08T04:55:02;13.30;99.90
10678;DHT22;5387;48.722;9.110;2023-09-08T04:57:29;13.30;99.90
10678;DHT22;5387;48.722;9.110;2023-09-08T04:59:56;13.00;99.90
10678;DHT22;5387;48.722;9.110;2023-09-08T05:02:22;13.20;99.90
10678;DHT22;5387;48.722;9.110;2023-09-08T05:04:49;13.20;99.90
10678;DHT22;5387;48.722;9.110;2023-09-08T05:07:16;13.20;99.90
10678;DHT22;5387;48.722;9.110;2023-09-08T05:09:45;13.10;99.90
10678;DHT22;5387;48.722;9.110;2023-09-08T05:12:12;13.20;99.90
10678;DHT22;5387;48.722;9.110;2023-09-08T05:14:39;13.20;99.90
10678;DHT22;5387;48.722;9.110;2023-09-08T05:17:06;13.10;99.90
10678;DHT22;5387;48.722;9.110;2023-09-08T05:19:33;13.30;99.90
10678;DHT22;5387;48.722;9.110;2023-09-08T05:22:00;13.30;99.90
10678;DHT22;5387;48.722;9.110;2023-09-08T05:24:27;13.20;99.90
10678;DHT22;5387;48.722;9.110;2023-09-08T05:27:26;13.20;99.90
10678;DHT22;5387;48.722;9.110;2023-09-08T05:29:53;13.30;99.90
10678;DHT22;5387;48.722;9.110;2023-09-08T05:32:20;13.20;99.90
10678;DHT22;5387;48.722;9.110;2023-09-08T05:34:46;13.10;99.90
10678;DHT22;5387;48.722;9.110;2023-09-08T05:37:13;13.30;99.90
10678;DHT22;5387;48.722;9.110;2023-09-08T05:39:40;13.30;99.90
10678;DHT22;5387;48.722;9.110;2023-09-08T05:42:07;13.30;99.90
10678;DHT22;5387;48.722;9.110;2023-09-08T05:44:35;13.40;99.90
10678;DHT22;5387;48.722;9.110;2023-09-08T05:47:02;13.40;99.90
10678;DHT22;5387;48.722;9.110;2023-09-08T05:49:29;13.50;99.90
10678;DHT22;5387;48.722;9.110;2023-09-08T05:51:56;13.50;99.90
10678;DHT22;5387;48.722;9.110;2023-09-08T05:54:22;13.70;99.90
10678;DHT22;5387;48.722;9.110;2023-09-08T05:56:49;13.70;99.90
10678;DHT22;5387;48.722;9.110;2023-09-08T05:59:16;13.80;99.90
10678;DHT22;5387;48.722;9.110;2023-09-08T06:01:44;14.00;99.90
10678;DHT22;5387;48.722;9.110;2023-09-08T06:04:11;14.20;99.90
10678;DHT22;5387;48.722;9.110;2023-09-08T06:06:38;14.40;99.90
10678;DHT22;5387;48.722;9.110;2023-09-08T06:09:05;14.60;99.90
10678;DHT22;5387;48.722;9.110;2023-09-08T06:11:34;14.90;99.90
10678;DHT22;5387;48.722;9.110;2023-09-08T06:14:01;14.90;99.90
10678;DHT22;5387;48.722;9.110;2023-09-08T06:16:27;15.10;99.90
10678;DHT22;5387;48.722;9.110;2023-09-08T06:18:55;15.30;99.90
10678;DHT22;5387;48.722;9.110;2023-09-08T06:21:22;15.50;99.90
10678;DHT22;5387;48.722;9.110;2023-09-08T06:23:49;15.50;99.90
10678;DHT22;5387;48.722;9.110;2023-09-08T06:26:16;15.60;99.90
10678;DHT22;5387;48.722;9.110;2023-09-08T06:28:43;15.90;99.90
10678;DHT22;5387;48.722;9.110;2023-09-08T06:31:09;15.90;99.90
10678;DHT22;5387;48.722;9.110;2023-09-08T06:33:36;16.00;99.90
10678;DHT22;5387;48.722;9.110;2023-09-08T06:36:05;16.10;99.90
10678;DHT22;5387;48.722;9.110;2023-09-08T06:38:32;16.20;99.90
10678;DHT22;5387;48.722;9.110;2023-09-08T06:40:59;16.40;99.90
10678;DHT22;5387;48.722;9.110;2023-09-08T06:43:26;16.50;99.90
10678;DHT22;5387;48.722;9.110;2023-09-08T06:45:53;16.70;99.90
10678;DHT22;5387;48.722;9.110;2023-09-08T06:48:19;16.90;99.90
10678;DHT22;5387;48.722;9.110;2023-09-08T06:50:46;17.00;99.90
10678;DHT22;5387;48.722;9.110;2023-09-08T06:53:14;17.20;99.90
10678;DHT22;5387;48.722;9.110;2023-09-08T06:55:41;17.40;99.90
10678;DHT22;5387;48.722;9.110;2023-09-08T06:58:08;17.60;99.90
10678;DHT22;5387;48.722;9.110;2023-09-08T07:00:35;17.90;99.90
10678;DHT22;5387;48.722;9.110;2023-09-08T07:03:02;18.10;99.90
10678;DHT22;5387;48.722;9.110;2023-09-08T07:05:29;18.40;99.90
10678;DHT22;5387;48.722;9.110;2023-09-08T07:07:55;18.60;99.90
10678;DHT22;5387;48.722;9.110;2023-09-08T07:10:24;18.70;99.90
10678;DHT22;5387;48.722;9.110;2023-09-08T07:12:50;18.80;99.90
10678;DHT22;5387;48.722;9.110;2023-09-08T07:15:17;19.00;99.90
10678;DHT22;5387;48.722;9.110;2023-09-08T07:17:44;19.20;99.90
10678;DHT22;5387;48.722;9.110;2023-09-08T07:20:11;19.40;99.90
10678;DHT22;5387;48.722;9.110;2023-09-08T07:22:38;19.60;99.90
10678;DHT22;5387;48.722;9.110;2023-09-08T07:25:06;19.70;99.90
10678;DHT22;5387;48.722;9.110;2023-09-08T07:27:34;19.80;99.90
10678;DHT22;5387;48.722;9.110;2023-09-08T07:30:01;19.90;99.90
10678;DHT22;5387;48.722;9.110;2023-09-08T07:32:27;20.00;99.90
10678;DHT22;5387;48.722;9.110;2023-09-08T07:34:54;20.10;99.90
10678;DHT22;5387;48.722;9.110;2023-09-08T07:37:21;20.20;99.90
10678;DHT22;5387;48.722;9.110;2023-09-08T07:39:48;20.30;99.90
10678;DHT22;5387;48.722;9.110;2023-09-08T07:42:15;20.40;99.90
10678;DHT22;5387;48.722;9.110;2023-09-08T07:44:44;20.50;99.90
10678;DHT22;5387;48.722;9.110;2023-09-08T07:47:11;20.60;99.90
10678;DHT22;5387;48.722;9.110;2023-09-08T07:49:38;20.80;99.90
10678;DHT22;5387;48.722;9.110;2023-09-08T07:52:05;20.80;99.90
10678;DHT22;5387;48.722;9.110;2023-09-08T07:54:32;20.90;99.90
10678;DHT22;5387;48.722;9.110;2023-09-08T07:56:59;21.00;99.90
10678;DHT22;5387;48.722;9.110;2023-09-08T07:59:26;21.00;99.90
10678;DHT22;5387;48.722;9.110;2023-09-08T08:01:54;21.10;99.90
10678;DHT22;5387;48.722;9.110;2023-09-08T08:04:21;21.20;99.90
10678;DHT22;5387;48.722;9.110;2023-09-08T08:06:48;21.30;99.90
10678;DHT22;5387;48.722;9.110;2023-09-08T08:09:15;21.40;99.90
10678;DHT22;5387;48.722;9.110;2023-09-08T08:11:41;21.50;99.90
10678;DHT22;5387;48.722;9.110;2023-09-08T08:14:08;21.50;99.90
10678;DHT22;5387;48.722;9.110;2023-09-08T08:16:35;21.80;99.90
10678;DHT22;5387;48.722;9.110;2023-09-08T08:19:03;21.90;99.90
10678;DHT22;5387;48.722;9.110;2023-09-08T08:21:30;22.00;99.90
10678;DHT22;5387;48.722;9.110;2023-09-08T08:23:57;22.10;99.90
10678;DHT22;5387;48.722;9.110;2023-09-08T08:26:24;22.20;99.90
10678;DHT22;5387;48.722;9.110;2023-09-08T08:28:54;22.20;99.90
10678;DHT22;5387;48.722;9.110;2023-09-08T08:31:20;22.40;99.90
10678;DHT22;5387;48.722;9.110;2023-09-08T08:33:47;22.50;99.90
10678;DHT22;5387;48.722;9.110;2023-09-08T08:36:15;22.70;99.90
10678;DHT22;5387;48.722;9.110;2023-09-08T08:38:42;22.70;99.90
10678;DHT22;5387;48.722;9.110;2023-09-08T08:41:09;22.80;99.90
10678;DHT22;5387;48.722;9.110;2023-09-08T08:43:36;23.00;99.90
10678;DHT22;5387;48.722;9.110;2023-09-08T08:46:04;23.00;99.90
10678;DHT22;5387;48.722;9.110;2023-09-08T08:48:32;23.10;99.90
10678;DHT22;5387;48.722;9.110;2023-09-08T08:51:00;23.10;99.90
10678;DHT22;5387;48.722;9.110;2023-09-08T08:53:31;23.20;99.90
10678;DHT22;5387;48.722;9.110;2023-09-08T08:55:58;23.30;99.90
10678;DHT22;5387;48.722;9.110;2023-09-08T08:58:27;23.30;99.90
10678;DHT22;5387;48.722;9.110;2023-09-08T09:00:54;23.50;99.90
10678;DHT22;5387;48.722;9.110;2023-09-08T09:03:25;23.50;99.90
10678;DHT22;5387;48.722;9.110;2023-09-08T09:05:53;23.60;99.90
10678;DHT22;5387;48.722;9.110;2023-09-08T09:08:20;23.70;99.90
10678;DHT22;5387;48.722;9.110;2023-09-08T09:10:50;23.70;99.90
10678;DHT22;5387;48.722;9.110;2023-09-08T09:13:17;23.90;99.90
10678;DHT22;5387;48.722;9.110;2023-09-08T09:15:44;23.90;99.90
10678;DHT22;5387;48.722;9.110;2023-09-08T09:18:12;24.00;99.90
10678;DHT22;5387;48.722;9.110;2023-09-08T09:20:39;23.90;99.90
10678;DHT22;5387;48.722;9.110;2023-09-08T09:23:06;24.00;99.90
10678;DHT22;5387;48.722;9.110;2023-09-08T09:25:33;23.90;99.90
10678;DHT22;5387;48.722;9.110;2023-09-08T09:28:03;23.90;99.90
10678;DHT22;5387;48.722;9.110;2023-09-08T09:30:46;24.10;99.90
10678;DHT22;5387;48.722;9.110;2023-09-08T09:33:13;24.10;99.90
10678;DHT22;5387;48.722;9.110;2023-09-08T09:35:42;24.10;99.90
10678;DHT22;5387;48.722;9.110;2023-09-08T09:38:09;24.10;99.90
10678;DHT22;5387;48.722;9.110;2023-09-08T09:40:37;23.90;99.90
10678;DHT22;5387;48.722;9.110;2023-09-08T09:43:06;23.90;99.90
10678;DHT22;5387;48.722;9.110;2023-09-08T09:45:33;24.00;99.90
10678;DHT22;5387;48.722;9.110;2023-09-08T09:48:02;24.20;99.90
10678;DHT22;5387;48.722;9.110;2023-09-08T09:50:30;24.40;99.90
10678;DHT22;5387;48.722;9.110;2023-09-08T09:53:00;24.50;99.90
10678;DHT22;5387;48.722;9.110;2023-09-08T09:55:28;24.60;99.90
10678;DHT22;5387;48.722;9.110;2023-09-08T09:57:56;24.80;99.90
10678;DHT22;5387;48.722;9.110;2023-09-08T10:00:27;25.00;99.90
10678;DHT22;5387;48.722;9.110;2023-09-08T10:02:55;25.10;99.90
10678;DHT22;5387;48.722;9.110;2023-09-08T10:05:23;25.20;99.90
10678;DHT22;5387;48.722;9.110;2023-09-08T10:07:50;25.30;99.90
10678;DHT22;5387;48.722;9.110;2023-09-08T10:10:18;25.30;99.90
10678;DHT22;5387;48.722;9.110;2023-09-08T10:12:46;25.30;99.90
10678;DHT22;5387;48.722;9.110;2023-09-08T10:15:19;25.40;99.90
10678;DHT22;5387;48.722;9.110;2023-09-08T10:17:52;25.40;99.90
10678;DHT22;5387;48.722;9.110;2023-09-08T10:20:20;25.40;99.90
10678;DHT22;5387;48.722;9.110;2023-09-08T10:23:04;25.30;99.90
10678;DHT22;5387;48.722;9.110;2023-09-08T10:25:53;25.40;99.90
10678;DHT22;5387;48.722;9.110;2023-09-08T10:28:22;25.60;99.90
10678;DHT22;5387;48.722;9.110;2023-09-08T10:30:50;25.80;99.90
10678;DHT22;5387;48.722;9.110;2023-09-08T10:33:19;25.80;99.90
10678;DHT22;5387;48.722;9.110;2023-09-08T10:35:47;25.90;99.90
10678;DHT22;5387;48.722;9.110;2023-09-08T10:38:24;25.80;99.90
10678;DHT22;5387;48.722;9.110;2023-09-08T10:40:51;25.90;99.90
10678;DHT22;5387;48.722;9.110;2023-09-08T10:43:19;25.90;99.90
10678;DHT22;5387;48.722;9.110;2023-09-08T10:45:46;25.70;99.90
10678;DHT22;5387;48.722;9.110;2023-09-08T10:48:13;25.50;99.90
10678;DHT22;5387;48.722;9.110;2023-09-08T10:50:42;25.50;99.90
10678;DHT22;5387;48.722;9.110;2023-09-08T10:53:14;25.40;99.90
10678;DHT22;5387;48.722;9.110;2023-09-08T10:55:42;25.50;99.90
10678;DHT22;5387;48.722;9.110;2023-09-08T10:58:18;25.90;99.90
10678;DHT22;5387;48.722;9.110;2023-09-08T11:00:47;26.10;99.90
10678;DHT22;5387;48.722;9.110;2023-09-08T11:03:14;26.20;99.90
10678;DHT22;5387;48.722;9.110;2023-09-08T11:05:53;26.30;99.90
10678;DHT22;5387;48.722;9.110;2023-09-08T11:08:20;26.40;99.90
10678;DHT22;5387;48.722;9.110;2023-09-08T11:10:48;26.40;99.90
10678;DHT22;5387;48.722;9.110;2023-09-08T11:13:16;26.50;99.90
10678;DHT22;5387;48.722;9.110;2023-09-08T11:15:43;26.80;99.90
10678;DHT22;5387;48.722;9.110;2023-09-08T11:18:10;27.10;99.90
10678;DHT22;5387;48.722;9.110;2023-09-08T11:20:37;27.30;99.90
10678;DHT22;5387;48.722;9.110;2023-09-08T11:23:05;27.30;99.90
10678;DHT22;5387;48.722;9.110;2023-09-08T11:25:32;27.30;99.90
10678;DHT22;5387;48.722;9.110;2023-09-08T11:28:00;27.50;99.90
10678;DHT22;5387;48.722;9.110;2023-09-08T11:30:27;27.70;99.90
10678;DHT22;5387;48.722;9.110;2023-09-08T11:32:54;27.50;99.90
10678;DHT22;5387;48.722;9.110;2023-09-08T11:35:26;27.40;99.90
10678;DHT22;5387;48.722;9.110;2023-09-08T11:37:59;27.60;99.90
10678;DHT22;5387;48.722;9.110;2023-09-08T11:40:28;27.60;99.90
10678;DHT22;5387;48.722;9.110;2023-09-08T11:42:56;27.70;99.90
10678;DHT22;5387;48.722;9.110;2023-09-08T11:45:23;28.40;99.90
10678;DHT22;5387;48.722;9.110;2023-09-08T11:47:52;29.50;99.90
10678;DHT22;5387;48.722;9.110;2023-09-08T11:50:19;30.40;99.90
10678;DHT22;5387;48.722;9.110;2023-09-08T11:52:47;30.40;99.90
10678;DHT22;5387;48.722;9.110;2023-09-08T11:55:15;30.80;99.90
10678;DHT22;5387;48.722;9.110;2023-09-08T11:57:45;32.10;99.90
10678;DHT22;5387;48.722;9.110;2023-09-08T12:00:13;31.60;99.90
10678;DHT22;5387;48.722;9.110;2023-09-08T12:02:43;31.60;99.90
10678;DHT22;5387;48.722;9.110;2023-09-08T12:05:20;30.90;99.90
10678;DHT22;5387;48.722;9.110;2023-09-08T12:07:47;30.50;99.90
10678;DHT22;5387;48.722;9.110;2023-09-08T12:10:14;30.90;99.90
10678;DHT22;5387;48.722;9.110;2023-09-08T12:12:43;31.20;99.90
10678;DHT22;5387;48.722;9.110;2023-09-08T12:15:10;31.50;99.90
10678;DHT22;5387;48.722;9.110;2023-09-08T12:17:47;30.90;99.90
10678;DHT22;5387;48.722;9.110;2023-09-08T12:20:14;29.90;99.90
10678;DHT22;5387;48.722;9.110;2023-09-08T12:22:48;29.40;99.90
10678;DHT22;5387;48.722;9.110;2023-09-08T12:25:15;29.10;99.90
10678;DHT22;5387;48.722;9.110;2023-09-08T12:27:44;28.90;99.90
10678;DHT22;5387;48.722;9.110;2023-09-08T12:30:17;28.80;99.90
10678;DHT22;5387;48.722;9.110;2023-09-08T12:32:46;28.80;99.90
10678;DHT22;5387;48.722;9.110;2023-09-08T12:35:19;28.80;99.90
10678;DHT22;5387;48.722;9.110;2023-09-08T12:37:51;28.60;99.90
10678;DHT22;5387;48.722;9.110;2023-09-08T12:40:18;28.70;99.90
10678;DHT22;5387;48.722;9.110;2023-09-08T12:42:46;28.60;99.90
10678;DHT22;5387;48.722;9.110;2023-09-08T12:45:13;28.40;99.90
10678;DHT22;5387;48.722;9.110;2023-09-08T12:47:40;28.30;99.90
10678;DHT22;5387;48.722;9.110;2023-09-08T12:50:07;28.40;99.90
10678;DHT22;5387;48.722;9.110;2023-09-08T12:52:34;28.50;99.90
10678;DHT22;5387;48.722;9.110;2023-09-08T12:55:01;28.70;99.90
10678;DHT22;5387;48.722;9.110;2023-09-08T12:57:27;28.50;99.90
10678;DHT22;5387;48.722;9.110;2023-09-08T12:59:56;28.70;99.90
10678;DHT22;5387;48.722;9.110;2023-09-08T13:02:23;28.70;99.90
10678;DHT22;5387;48.722;9.110;2023-09-08T13:04:50;28.70;99.90
10678;DHT22;5387;48.722;9.110;2023-09-08T13:07:17;28.70;99.90
10678;DHT22;5387;48.722;9.110;2023-09-08T13:09:44;28.50;99.90
10678;DHT22;5387;48.722;9.110;2023-09-08T13:12:11;28.30;99.90
10678;DHT22;5387;48.722;9.110;2023-09-08T13:14:38;28.50;99.90
10678;DHT22;5387;48.722;9.110;2023-09-08T13:17:07;28.50;99.90
10678;DHT22;5387;48.722;9.110;2023-09-08T13:19:34;28.30;99.90
10678;DHT22;5387;48.722;9.110;2023-09-08T13:22:01;28.10;99.90
10678;DHT22;5387;48.722;9.110;2023-09-08T13:24:27;28.10;99.90
10678;DHT22;5387;48.722;9.110;2023-09-08T13:26:54;28.10;99.90
10678;DHT22;5387;48.722;9.110;2023-09-08T13:29:21;28.40;99.90
10678;DHT22;5387;48.722;9.110;2023-09-08T13:31:48;28.10;99.90
10678;DHT22;5387;48.722;9.110;2023-09-08T13:34:16;27.90;99.90
10678;DHT22;5387;48.722;9.110;2023-09-08T13:36:43;27.90;99.90
10678;DHT22;5387;48.722;9.110;2023-09-08T13:39:09;27.80;99.90
10678;DHT22;5387;48.722;9.110;2023-09-08T13:41:50;27.80;99.90
10678;DHT22;5387;48.722;9.110;2023-09-08T13:44:18;27.70;99.90
10678;DHT22;5387;48.722;9.110;2023-09-08T13:46:46;27.70;99.90
10678;DHT22;5387;48.722;9.110;2023-09-08T13:49:13;27.60;99.90
10678;DHT22;5387;48.722;9.110;2023-09-08T13:51:41;27.50;99.90
10678;DHT22;5387;48.722;9.110;2023-09-08T13:54:09;27.30;99.90
10678;DHT22;5387;48.722;9.110;2023-09-08T13:56:38;27.40;99.90
10678;DHT22;5387;48.722;9.110;2023-09-08T13:59:05;27.40;99.90
10678;DHT22;5387;48.722;9.110;2023-09-08T14:01:33;27.40;99.90
10678;DHT22;5387;48.722;9.110;2023-09-08T14:03:59;27.40;99.90
10678;DHT22;5387;48.722;9.110;2023-09-08T14:06:27;27.50;99.90
10678;DHT22;5387;48.722;9.110;2023-09-08T14:08:55;27.50;99.90
10678;DHT22;5387;48.722;9.110;2023-09-08T14:11:22;27.40;99.90
10678;DHT22;5387;48.722;9.110;2023-09-08T14:13:49;27.40;99.90
10678;DHT22;5387;48.722;9.110;2023-09-08T14:16:17;27.50;99.90
10678;DHT22;5387;48.722;9.110;2023-09-08T14:18:44;27.60;99.90
10678;DHT22;5387;48.722;9.110;2023-09-08T14:21:11;27.50;99.90
10678;DHT22;5387;48.722;9.110;2023-09-08T14:23:37;27.40;99.90
10678;DHT22;5387;48.722;9.110;2023-09-08T14:26:07;27.50;99.90
10678;DHT22;5387;48.722;9.110;2023-09-08T14:28:34;27.40;99.90
10678;DHT22;5387;48.722;9.110;2023-09-08T14:31:02;27.30;99.90
10678;DHT22;5387;48.722;9.110;2023-09-08T14:33:29;27.40;99.90
10678;DHT22;5387;48.722;9.110;2023-09-08T14:35:55;27.20;99.90
10678;DHT22;5387;48.722;9.110;2023-09-08T14:38:23;27.20;99.90
10678;DHT22;5387;48.722;9.110;2023-09-08T14:40:57;27.20;99.90
10678;DHT22;5387;48.722;9.110;2023-09-08T14:43:25;27.20;99.90
10678;DHT22;5387;48.722;9.110;2023-09-08T14:45:52;27.10;99.90
10678;DHT22;5387;48.722;9.110;2023-09-08T14:48:19;27.10;99.90
10678;DHT22;5387;48.722;9.110;2023-09-08T14:50:46;27.10;99.90
10678;DHT22;5387;48.722;9.110;2023-09-08T14:53:13;27.00;99.90
10678;DHT22;5387;48.722;9.110;2023-09-08T14:55:40;27.10;99.90
10678;DHT22;5387;48.722;9.110;2023-09-08T14:58:09;27.10;99.90
10678;DHT22;5387;48.722;9.110;2023-09-08T15:00:38;27.10;99.90
10678;DHT22;5387;48.722;9.110;2023-09-08T15:03:05;27.00;99.90
10678;DHT22;5387;48.722;9.110;2023-09-08T15:05:32;26.90;99.90
10678;DHT22;5387;48.722;9.110;2023-09-08T15:07:59;26.90;99.90
10678;DHT22;5387;48.722;9.110;2023-09-08T15:10:27;27.10;99.90
10678;DHT22;5387;48.722;9.110;2023-09-08T15:12:54;27.00;99.90
10678;DHT22;5387;48.722;9.110;2023-09-08T15:15:20;27.00;99.90
10678;DHT22;5387;48.722;9.110;2023-09-08T15:17:51;27.00;99.90
10678;DHT22;5387;48.722;9.110;2023-09-08T15:20:18;27.00;99.90
10678;DHT22;5387;48.722;9.110;2023-09-08T15:22:45;26.90;99.90
10678;DHT22;5387;48.722;9.110;2023-09-08T15:25:12;26.90;99.90
10678;DHT22;5387;48.722;9.110;2023-09-08T15:27:39;26.90;99.90
10678;DHT22;5387;48.722;9.110;2023-09-08T15:30:07;27.00;99.90
10678;DHT22;5387;48.722;9.110;2023-09-08T15:32:34;27.00;99.90
10678;DHT22;5387;48.722;9.110;2023-09-08T15:35:03;26.90;99.90
10678;DHT22;5387;48.722;9.110;2023-09-08T15:37:30;26.80;99.90
10678;DHT22;5387;48.722;9.110;2023-09-08T15:39:56;26.90;99.90
10678;DHT22;5387;48.722;9.110;2023-09-08T15:42:23;26.80;99.90
10678;DHT22;5387;48.722;9.110;2023-09-08T15:44:50;26.80;99.90
10678;DHT22;5387;48.722;9.110;2023-09-08T15:47:17;26.70;99.90
10678;DHT22;5387;48.722;9.110;2023-09-08T15:49:44;26.70;99.90
10678;DHT22;5387;48.722;9.110;2023-09-08T15:52:12;26.80;99.90